Terminal Aerodrome Forecast
Issued by NWS Albany, NY

Home | Current Version | Previous Version | Text Only | Print | Product List | Glossary On
Versions: 1 2 3 4 5 6 7 8 9 10 11 12 13 14 15 16 17 18 19 20 21 22 23 24 25 26 27 28 29 30 31 32 33
264
FTUS41 KALY 202335
TAFGFL
TAF
KGFL 202335Z 2100/2124 21005KT P6SM SCT020 OVC040 WS020/23040KT
      TEMPO 2101/2105 3SM BR OVC020
     FM210500 21003KT 1SM BR SCT004 OVC010 WS020/23040KT
     FM211300 22005KT 3SM BR SCT010 OVC020 WS020/23040KT
     FM211400 24012KT P6SM SCT025
     FM211900 24012KT P6SM VCSH SCT025 OVC090=

USA.gov is the U.S. government's official web portal to all federal, state and local government web resources and services.